Woodberry, SC

5:14 PM EDT on March 28, 2017 (GMT -0400)
Meadow Wood | | Change Station

Elev 945 ft 34.86 °N, 82.30 °W | Updated 6 minutes ago

Clear
Clear
82.0 °F
Feels Like 81 °F
N
0.0
Wind Variable Wind from SW
Gusts 10.0 mph

Today
High -- | Low -- °F
--% Chance of Precip.
Yesterday
High -- | Low -- °F
Precip. -- in
Pressure 29.87 in
Visibility 10.0 miles
Clouds Scattered Clouds 8000 ft
Heat Index 81 °F
Dew Point 53 °F
Humidity 37%
Rainfall 0.37 in
Snow Depth Not available.
7:21 AM 7:47 PM
New Moon, 1% visible
METAR KGMU 282053Z 26013G20KT 10SM SCT080 28/08 A2989 RMK AO2 SLP113 T02830083 56015
Pressure 29.87 in
Visibility 10.0 miles
Clouds Scattered Clouds 8000 ft
Heat Index 81 °F
Dew Point 53 °F
Humidity 37%
Rainfall 0.37 in
Snow Depth Not available.
7:21 AM 7:47 PM
New Moon, 1% visible
METAR KGMU 282053Z 26013G20KT 10SM SCT080 28/08 A2989 RMK AO2 SLP113 T02830083 56015

Get Severe Weather Alerts

Thanks for signing up!

Be on the lookout for a verification email in your inbox.

You'll start receiving the daily forecast at 8 AM.

×

10-Day Weather Forecast

Almanac

Astronomy

Mar. 28, 2017 Rise Set
Actual Time
Civil Twilight
Nautical Twilight
Astronomical Twilight
Moon
Length of Visible Light
Length of Day
Tomorrow will be .
, % of the Moon is Illuminated

Today's Extremes

State Highs State Lows

Community

WunderPhotos

Upload Photos

1,962,540 photos uploaded!

WunderBlog® & News

Nearby

Air Quality

  Air Quality AQ Index Pollutant
Not available.

Snow Depth

Station Depth Elevation

Earthquake Activity

City Distance Mag. Time & Date
Minimum magnitude displayed is 2.5.

Earthquake Activity

City Distance Mag. Time & Date
Minimum magnitude displayed is 2.5.

Coastal Water Temperatures

Place Temperature

Stations

Nearby Weather Stations

Station Location Temp. Windchill Dew Point Humidity Wind Precip. Elev Updated Type
                   

Watches & Warnings

There are currently no watches in effect.